sensor_id;sensor_type;location;lat;lon;timestamp;P1;durP1;ratioP1;P2;durP2;ratioP2
3916;SDS011;1973;50.518;7.318;2023-08-06T00:00:29;3.87;;;3.10;;
3916;SDS011;1973;50.518;7.318;2023-08-06T00:02:55;13.37;;;2.90;;
3916;SDS011;1973;50.518;7.318;2023-08-06T00:05:22;4.50;;;3.13;;
3916;SDS011;1973;50.518;7.318;2023-08-06T00:07:49;3.57;;;3.20;;
3916;SDS011;1973;50.518;7.318;2023-08-06T00:10:16;4.47;;;3.33;;
3916;SDS011;1973;50.518;7.318;2023-08-06T00:12:44;4.03;;;3.07;;
3916;SDS011;1973;50.518;7.318;2023-08-06T00:15:11;4.43;;;3.70;;
3916;SDS011;1973;50.518;7.318;2023-08-06T00:17:38;4.30;;;3.83;;
3916;SDS011;1973;50.518;7.318;2023-08-06T00:20:05;4.40;;;4.07;;
3916;SDS011;1973;50.518;7.318;2023-08-06T00:25:00;4.23;;;3.47;;
3916;SDS011;1973;50.518;7.318;2023-08-06T00:27:26;4.20;;;3.80;;
3916;SDS011;1973;50.518;7.318;2023-08-06T00:29:53;4.47;;;4.03;;
3916;SDS011;1973;50.518;7.318;2023-08-06T00:32:20;3.60;;;3.30;;
3916;SDS011;1973;50.518;7.318;2023-08-06T00:34:47;3.80;;;3.50;;
3916;SDS011;1973;50.518;7.318;2023-08-06T00:37:18;4.63;;;4.23;;
3916;SDS011;1973;50.518;7.318;2023-08-06T00:39:45;6.37;;;4.13;;
3916;SDS011;1973;50.518;7.318;2023-08-06T00:42:12;7.47;;;4.20;;
3916;SDS011;1973;50.518;7.318;2023-08-06T00:44:39;3.67;;;3.10;;
3916;SDS011;1973;50.518;7.318;2023-08-06T00:47:06;4.87;;;4.00;;
3916;SDS011;1973;50.518;7.318;2023-08-06T00:49:37;6.13;;;3.80;;
3916;SDS011;1973;50.518;7.318;2023-08-06T00:52:04;6.20;;;3.97;;
3916;SDS011;1973;50.518;7.318;2023-08-06T00:54:31;4.83;;;3.43;;
3916;SDS011;1973;50.518;7.318;2023-08-06T00:56:59;3.60;;;3.30;;
3916;SDS011;1973;50.518;7.318;2023-08-06T00:59:29;5.90;;;4.10;;
3916;SDS011;1973;50.518;7.318;2023-08-06T01:01:57;4.40;;;3.67;;
3916;SDS011;1973;50.518;7.318;2023-08-06T01:04:24;4.83;;;3.60;;
3916;SDS011;1973;50.518;7.318;2023-08-06T01:07:01;5.30;;;4.10;;
3916;SDS011;1973;50.518;7.318;2023-08-06T01:09:57;4.40;;;3.50;;
3916;SDS011;1973;50.518;7.318;2023-08-06T01:12:50;3.37;;;3.07;;
3916;SDS011;1973;50.518;7.318;2023-08-06T01:15:29;4.17;;;3.67;;
3916;SDS011;1973;50.518;7.318;2023-08-06T01:17:59;4.83;;;2.87;;
3916;SDS011;1973;50.518;7.318;2023-08-06T01:20:29;3.90;;;3.50;;
3916;SDS011;1973;50.518;7.318;2023-08-06T01:22:57;4.30;;;3.57;;
3916;SDS011;1973;50.518;7.318;2023-08-06T01:25:26;5.60;;;3.50;;
3916;SDS011;1973;50.518;7.318;2023-08-06T01:28:02;3.80;;;3.10;;
3916;SDS011;1973;50.518;7.318;2023-08-06T01:30:34;3.63;;;2.90;;
3916;SDS011;1973;50.518;7.318;2023-08-06T01:33:07;4.77;;;3.17;;
3916;SDS011;1973;50.518;7.318;2023-08-06T01:35:40;3.27;;;2.90;;
3916;SDS011;1973;50.518;7.318;2023-08-06T01:38:08;4.03;;;3.20;;
3916;SDS011;1973;50.518;7.318;2023-08-06T01:40:35;3.10;;;2.77;;
3916;SDS011;1973;50.518;7.318;2023-08-06T01:43:02;4.10;;;3.03;;
3916;SDS011;1973;50.518;7.318;2023-08-06T01:45:28;5.97;;;3.57;;
3916;SDS011;1973;50.518;7.318;2023-08-06T01:47:55;3.90;;;3.47;;
3916;SDS011;1973;50.518;7.318;2023-08-06T01:50:21;2.93;;;2.40;;
3916;SDS011;1973;50.518;7.318;2023-08-06T01:52:48;5.43;;;3.20;;
3916;SDS011;1973;50.518;7.318;2023-08-06T01:55:14;4.80;;;3.10;;
3916;SDS011;1973;50.518;7.318;2023-08-06T01:57:41;3.53;;;3.03;;
3916;SDS011;1973;50.518;7.318;2023-08-06T02:00:08;6.07;;;3.60;;
3916;SDS011;1973;50.518;7.318;2023-08-06T02:02:35;4.03;;;3.10;;
3916;SDS011;1973;50.518;7.318;2023-08-06T02:05:01;3.67;;;3.10;;
3916;SDS011;1973;50.518;7.318;2023-08-06T02:07:28;4.50;;;3.30;;
3916;SDS011;1973;50.518;7.318;2023-08-06T02:09:54;4.40;;;3.40;;
3916;SDS011;1973;50.518;7.318;2023-08-06T02:12:21;5.27;;;3.10;;
3916;SDS011;1973;50.518;7.318;2023-08-06T02:14:47;7.30;;;3.50;;
3916;SDS011;1973;50.518;7.318;2023-08-06T02:17:14;5.00;;;3.20;;
3916;SDS011;1973;50.518;7.318;2023-08-06T02:19:40;6.10;;;3.90;;
3916;SDS011;1973;50.518;7.318;2023-08-06T02:22:09;3.43;;;2.67;;
3916;SDS011;1973;50.518;7.318;2023-08-06T02:24:35;4.70;;;3.57;;
3916;SDS011;1973;50.518;7.318;2023-08-06T02:27:02;4.10;;;3.00;;
3916;SDS011;1973;50.518;7.318;2023-08-06T02:29:29;3.90;;;3.07;;
3916;SDS011;1973;50.518;7.318;2023-08-06T02:31:55;4.63;;;2.90;;
3916;SDS011;1973;50.518;7.318;2023-08-06T02:34:22;3.23;;;2.67;;
3916;SDS011;1973;50.518;7.318;2023-08-06T02:36:48;4.40;;;2.80;;
3916;SDS011;1973;50.518;7.318;2023-08-06T02:39:15;4.90;;;2.77;;
3916;SDS011;1973;50.518;7.318;2023-08-06T02:41:41;4.87;;;3.43;;
3916;SDS011;1973;50.518;7.318;2023-08-06T02:44:08;4.73;;;2.90;;
3916;SDS011;1973;50.518;7.318;2023-08-06T02:46:34;5.20;;;2.90;;
3916;SDS011;1973;50.518;7.318;2023-08-06T02:49:01;4.40;;;2.67;;
3916;SDS011;1973;50.518;7.318;2023-08-06T02:51:27;2.67;;;2.10;;
3916;SDS011;1973;50.518;7.318;2023-08-06T02:53:54;4.80;;;2.60;;
3916;SDS011;1973;50.518;7.318;2023-08-06T02:56:21;4.67;;;2.87;;
3916;SDS011;1973;50.518;7.318;2023-08-06T02:58:47;5.83;;;2.60;;
3916;SDS011;1973;50.518;7.318;2023-08-06T03:01:14;3.23;;;2.13;;
3916;SDS011;1973;50.518;7.318;2023-08-06T03:03:41;3.77;;;2.23;;
3916;SDS011;1973;50.518;7.318;2023-08-06T03:06:07;3.60;;;2.70;;
3916;SDS011;1973;50.518;7.318;2023-08-06T03:08:34;3.70;;;2.50;;
3916;SDS011;1973;50.518;7.318;2023-08-06T03:11:01;6.10;;;2.37;;
3916;SDS011;1973;50.518;7.318;2023-08-06T03:13:27;7.40;;;2.60;;
3916;SDS011;1973;50.518;7.318;2023-08-06T03:15:54;3.70;;;2.53;;
3916;SDS011;1973;50.518;7.318;2023-08-06T03:18:22;4.77;;;2.73;;
3916;SDS011;1973;50.518;7.318;2023-08-06T03:20:49;4.57;;;2.00;;
3916;SDS011;1973;50.518;7.318;2023-08-06T03:23:16;6.53;;;2.80;;
3916;SDS011;1973;50.518;7.318;2023-08-06T03:25:42;2.87;;;2.17;;
3916;SDS011;1973;50.518;7.318;2023-08-06T03:28:09;3.33;;;2.13;;
3916;SDS011;1973;50.518;7.318;2023-08-06T03:30:36;5.07;;;2.40;;
3916;SDS011;1973;50.518;7.318;2023-08-06T03:33:03;5.33;;;2.90;;
3916;SDS011;1973;50.518;7.318;2023-08-06T03:35:29;3.63;;;1.90;;
3916;SDS011;1973;50.518;7.318;2023-08-06T03:37:56;3.50;;;2.50;;
3916;SDS011;1973;50.518;7.318;2023-08-06T03:40:23;3.50;;;2.23;;
3916;SDS011;1973;50.518;7.318;2023-08-06T03:42:49;2.90;;;2.00;;
3916;SDS011;1973;50.518;7.318;2023-08-06T03:45:16;5.83;;;2.63;;
3916;SDS011;1973;50.518;7.318;2023-08-06T03:47:42;2.57;;;2.27;;
3916;SDS011;1973;50.518;7.318;2023-08-06T03:50:09;3.93;;;2.30;;
3916;SDS011;1973;50.518;7.318;2023-08-06T03:52:36;5.27;;;2.20;;
3916;SDS011;1973;50.518;7.318;2023-08-06T03:55:03;4.17;;;1.73;;
3916;SDS011;1973;50.518;7.318;2023-08-06T03:57:29;4.47;;;2.10;;
3916;SDS011;1973;50.518;7.318;2023-08-06T03:59:56;4.53;;;2.10;;
3916;SDS011;1973;50.518;7.318;2023-08-06T04:02:22;6.43;;;2.13;;
3916;SDS011;1973;50.518;7.318;2023-08-06T04:04:49;3.50;;;2.43;;
3916;SDS011;1973;50.518;7.318;2023-08-06T04:07:15;3.43;;;1.40;;
3916;SDS011;1973;50.518;7.318;2023-08-06T04:09:56;5.63;;;1.70;;
3916;SDS011;1973;50.518;7.318;2023-08-06T04:12:24;3.60;;;1.83;;
3916;SDS011;1973;50.518;7.318;2023-08-06T04:14:51;3.70;;;1.63;;
3916;SDS011;1973;50.518;7.318;2023-08-06T04:17:19;3.23;;;1.73;;
3916;SDS011;1973;50.518;7.318;2023-08-06T04:19:53;2.77;;;1.70;;
3916;SDS011;1973;50.518;7.318;2023-08-06T04:22:21;2.83;;;1.87;;
3916;SDS011;1973;50.518;7.318;2023-08-06T04:24:47;3.07;;;1.87;;
3916;SDS011;1973;50.518;7.318;2023-08-06T04:27:15;2.33;;;1.70;;
3916;SDS011;1973;50.518;7.318;2023-08-06T04:29:42;3.10;;;1.60;;
3916;SDS011;1973;50.518;7.318;2023-08-06T04:32:09;4.17;;;1.63;;
3916;SDS011;1973;50.518;7.318;2023-08-06T04:34:36;3.10;;;1.77;;
3916;SDS011;1973;50.518;7.318;2023-08-06T04:37:03;4.83;;;1.93;;
3916;SDS011;1973;50.518;7.318;2023-08-06T04:39:31;3.20;;;1.80;;
3916;SDS011;1973;50.518;7.318;2023-08-06T04:41:57;3.17;;;1.80;;
3916;SDS011;1973;50.518;7.318;2023-08-06T04:44:24;3.60;;;2.30;;
3916;SDS011;1973;50.518;7.318;2023-08-06T04:46:51;3.63;;;1.77;;
3916;SDS011;1973;50.518;7.318;2023-08-06T04:49:19;7.30;;;2.23;;
3916;SDS011;1973;50.518;7.318;2023-08-06T04:51:46;2.70;;;1.70;;
3916;SDS011;1973;50.518;7.318;2023-08-06T04:54:13;3.77;;;1.60;;
3916;SDS011;1973;50.518;7.318;2023-08-06T04:56:40;4.70;;;1.70;;
3916;SDS011;1973;50.518;7.318;2023-08-06T04:59:06;3.77;;;1.70;;
3916;SDS011;1973;50.518;7.318;2023-08-06T05:01:33;2.20;;;1.63;;
3916;SDS011;1973;50.518;7.318;2023-08-06T05:04:00;2.47;;;1.60;;
3916;SDS011;1973;50.518;7.318;2023-08-06T05:06:26;2.10;;;1.57;;
3916;SDS011;1973;50.518;7.318;2023-08-06T05:08:53;1.70;;;1.40;;
3916;SDS011;1973;50.518;7.318;2023-08-06T05:11:19;2.13;;;1.50;;
3916;SDS011;1973;50.518;7.318;2023-08-06T05:13:46;2.93;;;1.60;;
3916;SDS011;1973;50.518;7.318;2023-08-06T05:16:13;4.20;;;1.50;;
3916;SDS011;1973;50.518;7.318;2023-08-06T05:18:39;1.60;;;1.10;;
3916;SDS011;1973;50.518;7.318;2023-08-06T05:21:07;1.70;;;1.10;;
3916;SDS011;1973;50.518;7.318;2023-08-06T05:23:33;2.70;;;1.40;;
3916;SDS011;1973;50.518;7.318;2023-08-06T05:26:00;3.47;;;1.40;;
3916;SDS011;1973;50.518;7.318;2023-08-06T05:28:27;2.30;;;1.30;;
3916;SDS011;1973;50.518;7.318;2023-08-06T05:30:53;2.47;;;1.17;;
3916;SDS011;1973;50.518;7.318;2023-08-06T05:33:20;2.07;;;1.00;;
3916;SDS011;1973;50.518;7.318;2023-08-06T05:35:46;3.57;;;1.30;;
3916;SDS011;1973;50.518;7.318;2023-08-06T05:38:13;2.60;;;1.00;;
3916;SDS011;1973;50.518;7.318;2023-08-06T05:40:39;1.50;;;0.80;;
3916;SDS011;1973;50.518;7.318;2023-08-06T05:43:06;2.93;;;1.57;;
3916;SDS011;1973;50.518;7.318;2023-08-06T05:45:32;3.40;;;1.30;;
3916;SDS011;1973;50.518;7.318;2023-08-06T05:47:59;2.43;;;1.17;;
3916;SDS011;1973;50.518;7.318;2023-08-06T05:50:26;2.07;;;0.90;;
3916;SDS011;1973;50.518;7.318;2023-08-06T05:52:52;1.57;;;0.90;;
3916;SDS011;1973;50.518;7.318;2023-08-06T05:55:19;2.03;;;0.97;;
3916;SDS011;1973;50.518;7.318;2023-08-06T05:57:46;3.17;;;0.97;;
3916;SDS011;1973;50.518;7.318;2023-08-06T06:00:13;2.43;;;1.10;;
3916;SDS011;1973;50.518;7.318;2023-08-06T06:02:40;1.43;;;0.73;;
3916;SDS011;1973;50.518;7.318;2023-08-06T06:05:07;1.43;;;0.80;;
3916;SDS011;1973;50.518;7.318;2023-08-06T06:07:34;1.20;;;0.80;;
3916;SDS011;1973;50.518;7.318;2023-08-06T06:10:01;3.60;;;1.10;;
3916;SDS011;1973;50.518;7.318;2023-08-06T06:12:27;1.10;;;0.80;;
3916;SDS011;1973;50.518;7.318;2023-08-06T06:14:54;1.53;;;0.70;;
3916;SDS011;1973;50.518;7.318;2023-08-06T06:17:21;1.53;;;0.77;;
3916;SDS011;1973;50.518;7.318;2023-08-06T06:19:47;1.50;;;0.70;;
3916;SDS011;1973;50.518;7.318;2023-08-06T06:22:14;1.67;;;0.90;;
3916;SDS011;1973;50.518;7.318;2023-08-06T06:24:41;4.77;;;0.97;;
3916;SDS011;1973;50.518;7.318;2023-08-06T06:27:07;2.93;;;1.00;;
3916;SDS011;1973;50.518;7.318;2023-08-06T06:29:34;4.07;;;1.20;;
3916;SDS011;1973;50.518;7.318;2023-08-06T06:32:00;2.10;;;1.20;;
3916;SDS011;1973;50.518;7.318;2023-08-06T06:34:27;1.40;;;1.00;;
3916;SDS011;1973;50.518;7.318;2023-08-06T06:36:54;2.13;;;0.90;;
3916;SDS011;1973;50.518;7.318;2023-08-06T06:39:20;1.60;;;0.83;;
3916;SDS011;1973;50.518;7.318;2023-08-06T06:41:47;1.73;;;0.83;;
3916;SDS011;1973;50.518;7.318;2023-08-06T06:44:14;1.70;;;1.10;;
3916;SDS011;1973;50.518;7.318;2023-08-06T06:46:41;1.30;;;0.80;;
3916;SDS011;1973;50.518;7.318;2023-08-06T06:49:08;2.37;;;0.77;;
3916;SDS011;1973;50.518;7.318;2023-08-06T06:51:34;1.50;;;0.80;;
3916;SDS011;1973;50.518;7.318;2023-08-06T06:54:02;1.37;;;0.80;;
3916;SDS011;1973;50.518;7.318;2023-08-06T06:56:28;1.67;;;0.70;;
3916;SDS011;1973;50.518;7.318;2023-08-06T06:58:55;1.10;;;0.67;;
3916;SDS011;1973;50.518;7.318;2023-08-06T07:01:21;2.10;;;1.30;;
3916;SDS011;1973;50.518;7.318;2023-08-06T07:03:48;1.97;;;0.83;;
3916;SDS011;1973;50.518;7.318;2023-08-06T07:06:15;2.40;;;1.10;;
3916;SDS011;1973;50.518;7.318;2023-08-06T07:08:42;1.63;;;0.77;;
3916;SDS011;1973;50.518;7.318;2023-08-06T07:11:08;1.50;;;0.80;;
3916;SDS011;1973;50.518;7.318;2023-08-06T07:13:35;1.50;;;0.90;;
3916;SDS011;1973;50.518;7.318;2023-08-06T07:16:02;2.43;;;0.80;;
3916;SDS011;1973;50.518;7.318;2023-08-06T07:18:29;2.60;;;0.87;;
3916;SDS011;1973;50.518;7.318;2023-08-06T07:20:56;1.10;;;0.70;;
3916;SDS011;1973;50.518;7.318;2023-08-06T07:23:23;1.97;;;1.17;;
3916;SDS011;1973;50.518;7.318;2023-08-06T07:25:51;1.47;;;0.70;;
3916;SDS011;1973;50.518;7.318;2023-08-06T07:28:18;2.50;;;0.67;;
3916;SDS011;1973;50.518;7.318;2023-08-06T07:30:44;1.50;;;1.07;;
3916;SDS011;1973;50.518;7.318;2023-08-06T07:33:12;1.23;;;0.80;;
3916;SDS011;1973;50.518;7.318;2023-08-06T07:35:38;1.70;;;0.70;;
3916;SDS011;1973;50.518;7.318;2023-08-06T07:38:05;1.37;;;0.73;;
3916;SDS011;1973;50.518;7.318;2023-08-06T07:40:32;1.40;;;0.80;;
3916;SDS011;1973;50.518;7.318;2023-08-06T07:42:59;1.60;;;0.60;;
3916;SDS011;1973;50.518;7.318;2023-08-06T07:45:25;1.20;;;0.70;;
3916;SDS011;1973;50.518;7.318;2023-08-06T07:47:53;2.40;;;0.83;;
3916;SDS011;1973;50.518;7.318;2023-08-06T07:50:20;1.80;;;0.70;;
3916;SDS011;1973;50.518;7.318;2023-08-06T07:52:46;1.60;;;0.80;;
3916;SDS011;1973;50.518;7.318;2023-08-06T07:55:13;6.70;;;1.10;;
3916;SDS011;1973;50.518;7.318;2023-08-06T07:57:40;2.23;;;0.60;;
3916;SDS011;1973;50.518;7.318;2023-08-06T08:00:07;2.17;;;0.80;;
3916;SDS011;1973;50.518;7.318;2023-08-06T08:02:33;2.60;;;0.87;;
3916;SDS011;1973;50.518;7.318;2023-08-06T08:05:00;2.10;;;1.10;;
3916;SDS011;1973;50.518;7.318;2023-08-06T08:07:27;1.70;;;1.10;;
3916;SDS011;1973;50.518;7.318;2023-08-06T08:09:57;1.20;;;0.90;;
3916;SDS011;1973;50.518;7.318;2023-08-06T08:12:23;1.83;;;1.20;;
3916;SDS011;1973;50.518;7.318;2023-08-06T08:14:50;1.83;;;1.40;;
3916;SDS011;1973;50.518;7.318;2023-08-06T08:17:16;2.60;;;1.17;;
3916;SDS011;1973;50.518;7.318;2023-08-06T08:19:43;2.53;;;1.60;;
3916;SDS011;1973;50.518;7.318;2023-08-06T08:22:10;1.77;;;1.10;;
3916;SDS011;1973;50.518;7.318;2023-08-06T08:24:36;2.40;;;1.20;;
3916;SDS011;1973;50.518;7.318;2023-08-06T08:27:03;1.90;;;1.30;;
3916;SDS011;1973;50.518;7.318;2023-08-06T08:29:31;3.33;;;2.17;;
3916;SDS011;1973;50.518;7.318;2023-08-06T08:31:58;2.27;;;1.17;;
3916;SDS011;1973;50.518;7.318;2023-08-06T08:34:25;1.80;;;1.07;;
3916;SDS011;1973;50.518;7.318;2023-08-06T08:36:51;2.07;;;1.50;;
3916;SDS011;1973;50.518;7.318;2023-08-06T08:39:18;1.90;;;1.20;;
3916;SDS011;1973;50.518;7.318;2023-08-06T08:41:45;3.20;;;1.47;;
3916;SDS011;1973;50.518;7.318;2023-08-06T08:44:11;3.23;;;1.77;;
3916;SDS011;1973;50.518;7.318;2023-08-06T08:46:44;1.53;;;1.00;;
3916;SDS011;1973;50.518;7.318;2023-08-06T08:49:14;1.40;;;0.97;;
3916;SDS011;1973;50.518;7.318;2023-08-06T08:51:40;1.80;;;0.97;;
3916;SDS011;1973;50.518;7.318;2023-08-06T08:54:07;1.60;;;1.20;;
3916;SDS011;1973;50.518;7.318;2023-08-06T08:56:35;2.70;;;1.07;;
3916;SDS011;1973;50.518;7.318;2023-08-06T08:59:01;4.00;;;1.30;;
3916;SDS011;1973;50.518;7.318;2023-08-06T09:01:28;2.40;;;1.43;;
3916;SDS011;1973;50.518;7.318;2023-08-06T09:03:55;1.90;;;1.10;;
3916;SDS011;1973;50.518;7.318;2023-08-06T09:06:24;1.63;;;1.10;;
3916;SDS011;1973;50.518;7.318;2023-08-06T09:08:59;3.23;;;1.33;;
3916;SDS011;1973;50.518;7.318;2023-08-06T09:11:44;4.57;;;1.60;;
3916;SDS011;1973;50.518;7.318;2023-08-06T09:14:11;2.83;;;1.57;;
3916;SDS011;1973;50.518;7.318;2023-08-06T09:16:38;2.80;;;1.20;;
3916;SDS011;1973;50.518;7.318;2023-08-06T09:19:11;3.00;;;1.40;;
3916;SDS011;1973;50.518;7.318;2023-08-06T09:21:39;2.23;;;1.40;;
3916;SDS011;1973;50.518;7.318;2023-08-06T09:24:07;2.47;;;1.50;;
3916;SDS011;1973;50.518;7.318;2023-08-06T09:26:41;1.40;;;1.07;;
3916;SDS011;1973;50.518;7.318;2023-08-06T09:29:10;2.50;;;1.20;;
3916;SDS011;1973;50.518;7.318;2023-08-06T09:31:42;3.77;;;1.50;;
3916;SDS011;1973;50.518;7.318;2023-08-06T09:34:20;2.30;;;1.50;;
3916;SDS011;1973;50.518;7.318;2023-08-06T09:36:50;7.37;;;3.43;;
3916;SDS011;1973;50.518;7.318;2023-08-06T09:39:19;2.60;;;2.13;;
3916;SDS011;1973;50.518;7.318;2023-08-06T09:41:46;3.43;;;2.07;;
3916;SDS011;1973;50.518;7.318;2023-08-06T09:44:20;1.80;;;1.23;;
3916;SDS011;1973;50.518;7.318;2023-08-06T09:46:53;3.30;;;1.80;;
3916;SDS011;1973;50.518;7.318;2023-08-06T09:49:27;2.77;;;1.80;;
3916;SDS011;1973;50.518;7.318;2023-08-06T09:52:00;1.87;;;1.40;;
3916;SDS011;1973;50.518;7.318;2023-08-06T09:54:27;3.50;;;1.93;;
3916;SDS011;1973;50.518;7.318;2023-08-06T09:56:55;3.27;;;2.07;;
3916;SDS011;1973;50.518;7.318;2023-08-06T09:59:25;3.93;;;1.00;;
3916;SDS011;1973;50.518;7.318;2023-08-06T10:01:53;1.43;;;1.10;;
3916;SDS011;1973;50.518;7.318;2023-08-06T10:04:22;1.87;;;1.03;;
3916;SDS011;1973;50.518;7.318;2023-08-06T10:06:54;1.90;;;0.60;;
3916;SDS011;1973;50.518;7.318;2023-08-06T10:09:20;4.10;;;0.70;;
3916;SDS011;1973;50.518;7.318;2023-08-06T10:11:49;1.00;;;0.60;;
3916;SDS011;1973;50.518;7.318;2023-08-06T10:14:21;2.70;;;0.70;;
3916;SDS011;1973;50.518;7.318;2023-08-06T10:16:52;1.00;;;0.67;;
3916;SDS011;1973;50.518;7.318;2023-08-06T10:19:19;1.00;;;0.60;;
3916;SDS011;1973;50.518;7.318;2023-08-06T10:24:52;1.67;;;0.70;;
3916;SDS011;1973;50.518;7.318;2023-08-06T10:32:54;1.00;;;0.53;;
3916;SDS011;1973;50.518;7.318;2023-08-06T10:35:43;1.90;;;0.63;;
3916;SDS011;1973;50.518;7.318;2023-08-06T10:38:12;2.37;;;0.80;;
3916;SDS011;1973;50.518;7.318;2023-08-06T10:43:26;1.40;;;0.83;;
3916;SDS011;1973;50.518;7.318;2023-08-06T10:45:58;5.97;;;1.70;;
3916;SDS011;1973;50.518;7.318;2023-08-06T10:48:35;1.00;;;0.70;;
3916;SDS011;1973;50.518;7.318;2023-08-06T10:51:04;1.53;;;0.70;;
3916;SDS011;1973;50.518;7.318;2023-08-06T10:53:33;1.40;;;0.77;;
3916;SDS011;1973;50.518;7.318;2023-08-06T10:56:00;1.40;;;0.80;;
3916;SDS011;1973;50.518;7.318;2023-08-06T10:58:32;3.90;;;1.63;;
3916;SDS011;1973;50.518;7.318;2023-08-06T11:00:59;2.07;;;1.13;;
3916;SDS011;1973;50.518;7.318;2023-08-06T11:03:26;1.73;;;1.10;;
3916;SDS011;1973;50.518;7.318;2023-08-06T11:05:54;1.97;;;1.27;;
3916;SDS011;1973;50.518;7.318;2023-08-06T11:08:27;2.43;;;0.90;;
3916;SDS011;1973;50.518;7.318;2023-08-06T11:10:55;1.83;;;1.20;;
3916;SDS011;1973;50.518;7.318;2023-08-06T11:13:29;2.53;;;1.10;;
3916;SDS011;1973;50.518;7.318;2023-08-06T11:15:55;2.70;;;0.97;;
3916;SDS011;1973;50.518;7.318;2023-08-06T11:18:24;2.40;;;1.43;;
3916;SDS011;1973;50.518;7.318;2023-08-06T11:20:51;2.53;;;1.23;;
3916;SDS011;1973;50.518;7.318;2023-08-06T11:23:17;4.70;;;1.00;;
3916;SDS011;1973;50.518;7.318;2023-08-06T11:25:44;2.60;;;0.73;;
3916;SDS011;1973;50.518;7.318;2023-08-06T11:28:12;1.97;;;0.80;;
3916;SDS011;1973;50.518;7.318;2023-08-06T11:30:39;2.40;;;0.90;;
3916;SDS011;1973;50.518;7.318;2023-08-06T11:33:07;4.53;;;1.30;;
3916;SDS011;1973;50.518;7.318;2023-08-06T11:35:35;1.70;;;0.87;;
3916;SDS011;1973;50.518;7.318;2023-08-06T11:38:03;1.70;;;0.80;;
3916;SDS011;1973;50.518;7.318;2023-08-06T11:40:31;1.70;;;0.73;;
3916;SDS011;1973;50.518;7.318;2023-08-06T11:42:58;2.43;;;0.87;;
3916;SDS011;1973;50.518;7.318;2023-08-06T11:45:25;1.13;;;0.80;;
3916;SDS011;1973;50.518;7.318;2023-08-06T11:47:52;2.70;;;0.70;;
3916;SDS011;1973;50.518;7.318;2023-08-06T11:50:23;2.10;;;0.97;;
3916;SDS011;1973;50.518;7.318;2023-08-06T11:52:54;2.57;;;0.83;;
3916;SDS011;1973;50.518;7.318;2023-08-06T11:55:23;4.40;;;1.10;;
3916;SDS011;1973;50.518;7.318;2023-08-06T11:57:51;1.97;;;0.90;;
3916;SDS011;1973;50.518;7.318;2023-08-06T12:00:18;1.63;;;0.87;;
3916;SDS011;1973;50.518;7.318;2023-08-06T12:02:46;1.87;;;0.80;;
3916;SDS011;1973;50.518;7.318;2023-08-06T12:05:16;3.57;;;0.90;;
3916;SDS011;1973;50.518;7.318;2023-08-06T12:07:52;2.57;;;1.07;;
3916;SDS011;1973;50.518;7.318;2023-08-06T12:10:21;1.60;;;0.87;;
3916;SDS011;1973;50.518;7.318;2023-08-06T12:12:50;3.10;;;1.00;;
3916;SDS011;1973;50.518;7.318;2023-08-06T12:15:16;2.53;;;0.90;;
3916;SDS011;1973;50.518;7.318;2023-08-06T12:17:43;3.30;;;0.93;;
3916;SDS011;1973;50.518;7.318;2023-08-06T12:20:10;1.80;;;0.67;;
3916;SDS011;1973;50.518;7.318;2023-08-06T12:22:37;1.80;;;0.83;;
3916;SDS011;1973;50.518;7.318;2023-08-06T12:25:06;2.97;;;1.00;;
3916;SDS011;1973;50.518;7.318;2023-08-06T12:27:35;1.80;;;1.00;;
3916;SDS011;1973;50.518;7.318;2023-08-06T12:30:02;2.23;;;0.70;;
3916;SDS011;1973;50.518;7.318;2023-08-06T12:32:30;2.90;;;1.10;;
3916;SDS011;1973;50.518;7.318;2023-08-06T12:34:57;1.67;;;0.90;;
3916;SDS011;1973;50.518;7.318;2023-08-06T12:37:24;1.20;;;0.70;;
3916;SDS011;1973;50.518;7.318;2023-08-06T12:39:51;1.23;;;0.80;;
3916;SDS011;1973;50.518;7.318;2023-08-06T12:42:18;3.93;;;1.20;;
3916;SDS011;1973;50.518;7.318;2023-08-06T12:44:45;5.30;;;1.00;;
3916;SDS011;1973;50.518;7.318;2023-08-06T12:47:11;2.50;;;1.17;;
3916;SDS011;1973;50.518;7.318;2023-08-06T12:49:38;2.87;;;0.80;;
3916;SDS011;1973;50.518;7.318;2023-08-06T12:52:04;1.50;;;0.87;;
3916;SDS011;1973;50.518;7.318;2023-08-06T12:54:33;3.00;;;1.83;;
3916;SDS011;1973;50.518;7.318;2023-08-06T12:57:03;4.50;;;0.90;;
3916;SDS011;1973;50.518;7.318;2023-08-06T12:59:30;2.37;;;1.00;;
3916;SDS011;1973;50.518;7.318;2023-08-06T13:01:59;2.00;;;0.83;;
3916;SDS011;1973;50.518;7.318;2023-08-06T13:04:26;3.33;;;1.13;;
3916;SDS011;1973;50.518;7.318;2023-08-06T13:06:54;2.80;;;1.33;;
3916;SDS011;1973;50.518;7.318;2023-08-06T13:09:21;3.43;;;0.90;;
3916;SDS011;1973;50.518;7.318;2023-08-06T13:11:47;5.50;;;3.30;;
3916;SDS011;1973;50.518;7.318;2023-08-06T13:14:16;4.00;;;2.80;;
3916;SDS011;1973;50.518;7.318;2023-08-06T13:16:43;3.33;;;2.10;;
3916;SDS011;1973;50.518;7.318;2023-08-06T13:19:11;1.87;;;0.90;;
3916;SDS011;1973;50.518;7.318;2023-08-06T13:24:06;1.80;;;0.83;;
3916;SDS011;1973;50.518;7.318;2023-08-06T13:26:33;7.40;;;0.93;;
3916;SDS011;1973;50.518;7.318;2023-08-06T13:29:00;1.00;;;0.60;;
3916;SDS011;1973;50.518;7.318;2023-08-06T13:31:28;1.50;;;0.97;;
3916;SDS011;1973;50.518;7.318;2023-08-06T13:33:55;1.93;;;1.17;;
3916;SDS011;1973;50.518;7.318;2023-08-06T13:36:25;1.17;;;0.63;;
3916;SDS011;1973;50.518;7.318;2023-08-06T13:38:53;1.97;;;0.70;;
3916;SDS011;1973;50.518;7.318;2023-08-06T13:41:19;1.93;;;0.70;;
3916;SDS011;1973;50.518;7.318;2023-08-06T13:43:46;4.07;;;1.40;;
3916;SDS011;1973;50.518;7.318;2023-08-06T13:46:13;3.10;;;1.97;;
3916;SDS011;1973;50.518;7.318;2023-08-06T13:48:44;2.67;;;1.47;;
3916;SDS011;1973;50.518;7.318;2023-08-06T13:51:12;3.10;;;1.07;;
3916;SDS011;1973;50.518;7.318;2023-08-06T13:53:39;1.80;;;0.90;;
3916;SDS011;1973;50.518;7.318;2023-08-06T13:56:07;1.40;;;1.10;;
3916;SDS011;1973;50.518;7.318;2023-08-06T13:58:38;2.10;;;1.33;;
3916;SDS011;1973;50.518;7.318;2023-08-06T14:01:05;3.13;;;1.30;;
3916;SDS011;1973;50.518;7.318;2023-08-06T14:03:32;1.97;;;1.00;;
3916;SDS011;1973;50.518;7.318;2023-08-06T14:05:59;2.53;;;1.67;;
3916;SDS011;1973;50.518;7.318;2023-08-06T14:08:26;2.97;;;1.20;;
3916;SDS011;1973;50.518;7.318;2023-08-06T14:10:53;5.10;;;1.87;;
3916;SDS011;1973;50.518;7.318;2023-08-06T14:13:20;1.87;;;1.10;;
3916;SDS011;1973;50.518;7.318;2023-08-06T14:15:48;2.77;;;1.53;;
3916;SDS011;1973;50.518;7.318;2023-08-06T14:18:15;2.20;;;1.10;;
3916;SDS011;1973;50.518;7.318;2023-08-06T14:20:43;1.93;;;1.10;;
3916;SDS011;1973;50.518;7.318;2023-08-06T14:23:10;2.50;;;1.10;;
3916;SDS011;1973;50.518;7.318;2023-08-06T14:25:37;2.53;;;1.00;;
3916;SDS011;1973;50.518;7.318;2023-08-06T14:28:05;1.80;;;1.00;;
3916;SDS011;1973;50.518;7.318;2023-08-06T14:30:33;3.77;;;1.20;;
3916;SDS011;1973;50.518;7.318;2023-08-06T14:33:01;3.17;;;1.03;;
3916;SDS011;1973;50.518;7.318;2023-08-06T14:35:46;2.10;;;1.00;;
3916;SDS011;1973;50.518;7.318;2023-08-06T14:38:13;1.73;;;0.80;;
3916;SDS011;1973;50.518;7.318;2023-08-06T14:40:39;2.73;;;1.23;;
3916;SDS011;1973;50.518;7.318;2023-08-06T14:43:06;2.97;;;1.30;;
3916;SDS011;1973;50.518;7.318;2023-08-06T14:45:33;1.63;;;0.80;;
3916;SDS011;1973;50.518;7.318;2023-08-06T14:48:04;3.97;;;1.90;;
3916;SDS011;1973;50.518;7.318;2023-08-06T14:50:30;2.63;;;1.20;;
3916;SDS011;1973;50.518;7.318;2023-08-06T14:52:57;1.60;;;0.93;;
3916;SDS011;1973;50.518;7.318;2023-08-06T14:55:30;2.80;;;0.90;;
3916;SDS011;1973;50.518;7.318;2023-08-06T14:57:56;2.80;;;1.00;;
3916;SDS011;1973;50.518;7.318;2023-08-06T15:00:23;2.40;;;0.97;;
3916;SDS011;1973;50.518;7.318;2023-08-06T15:02:50;2.20;;;0.77;;
3916;SDS011;1973;50.518;7.318;2023-08-06T15:05:16;1.87;;;0.80;;
3916;SDS011;1973;50.518;7.318;2023-08-06T15:07:44;1.60;;;0.70;;
3916;SDS011;1973;50.518;7.318;2023-08-06T15:10:10;1.83;;;0.90;;
3916;SDS011;1973;50.518;7.318;2023-08-06T15:12:40;2.77;;;0.80;;
3916;SDS011;1973;50.518;7.318;2023-08-06T15:15:07;1.10;;;0.70;;
3916;SDS011;1973;50.518;7.318;2023-08-06T15:17:34;3.13;;;1.10;;
3916;SDS011;1973;50.518;7.318;2023-08-06T15:20:00;1.40;;;0.80;;
3916;SDS011;1973;50.518;7.318;2023-08-06T15:22:27;1.67;;;0.73;;
3916;SDS011;1973;50.518;7.318;2023-08-06T15:24:55;4.80;;;0.90;;
3916;SDS011;1973;50.518;7.318;2023-08-06T15:27:21;1.60;;;1.27;;
3916;SDS011;1973;50.518;7.318;2023-08-06T15:29:48;1.97;;;0.70;;
3916;SDS011;1973;50.518;7.318;2023-08-06T15:32:14;1.63;;;0.90;;
3916;SDS011;1973;50.518;7.318;2023-08-06T15:34:41;1.40;;;0.80;;